createdAt,value
2023-01-07T00:00:28.153Z,96570.19
2023-01-07T00:01:34.452Z,96573.59
2023-01-07T00:02:36.426Z,96569.34
2023-01-07T00:03:41.546Z,96565.91
2023-01-07T00:04:43.471Z,96570.19
2023-01-07T00:05:48.209Z,96561.63
2023-01-07T00:06:50.356Z,96565.91
2023-01-07T00:07:54.920Z,96563.31
2023-01-07T00:09:01.144Z,96558.16
2023-01-07T00:10:03.203Z,96563.31
2023-01-07T00:11:12.865Z,96559.91
2023-01-07T00:12:14.817Z,96564.22
2023-01-07T00:13:19.342Z,96563.31
2023-01-07T00:14:21.274Z,96562.47
2023-01-07T00:15:25.786Z,96564.22
2023-01-07T00:16:30.479Z,96565.03
2023-01-07T00:17:34.968Z,96565.88
2023-01-07T00:18:37.784Z,96557.28
2023-01-07T00:19:42.276Z,96558.97
2023-01-07T00:20:44.159Z,96557.28
2023-01-07T00:21:48.652Z,96564.94
2023-01-07T00:22:50.565Z,96561.34
2023-01-07T00:23:57.310Z,96563.94
2023-01-07T00:25:01.883Z,96565.63
2023-01-07T00:26:08.877Z,96563.94
2023-01-07T00:27:13.375Z,96559.59
2023-01-07T00:28:15.256Z,96556.19
2023-01-07T00:29:21.056Z,96557.09
2023-01-07T00:30:23.032Z,96559.69
2023-01-07T00:31:29.078Z,96558.88
2023-01-07T00:32:51.189Z,96555.44
2023-01-07T00:34:07.074Z,96552.91
2023-01-07T00:35:22.703Z,96555.59
2023-01-07T00:36:28.966Z,96553.91
2023-01-07T00:37:45.977Z,96548.75
2023-01-07T00:38:51.195Z,96547.06
2023-01-07T00:39:53.071Z,96536.81
2023-01-07T00:40:57.703Z,96537.31
2023-01-07T00:42:17.305Z,96540.91
2023-01-07T00:43:21.982Z,96541.09
2023-01-07T00:44:23.858Z,96535.13
2023-01-07T00:45:28.690Z,96529.97
2023-01-07T00:46:30.655Z,96531.72
2023-01-07T00:47:35.194Z,96529.97
2023-01-07T00:48:37.050Z,96532.63
2023-01-07T00:49:41.477Z,96531.75
2023-01-07T00:50:43.422Z,96521.44
2023-01-07T00:51:47.962Z,96526.59
2023-01-07T00:52:49.933Z,96531.75
2023-01-07T00:53:54.479Z,96524.03
2023-01-07T00:54:56.345Z,96530.91
2023-01-07T00:56:00.888Z,96530.09
2023-01-07T00:57:05.368Z,96530.09
2023-01-07T00:58:10.117Z,96534.34
2023-01-07T00:59:12.111Z,96526.78
2023-01-07T01:00:19.078Z,96524.22
2023-01-07T01:01:21.181Z,96530.28
2023-01-07T01:02:26.026Z,96525.94
2023-01-07T01:03:29.508Z,96524.22
2023-01-07T01:04:34.405Z,96525.94
2023-01-07T01:05:36.375Z,96523.34
2023-01-07T01:06:40.944Z,96522.44
2023-01-07T01:07:43.011Z,96519.97
2023-01-07T01:08:49.337Z,96519.97
2023-01-07T01:09:51.326Z,96522.53
2023-01-07T01:10:55.878Z,96512.31
2023-01-07T01:11:57.780Z,96521.50
2023-01-07T01:13:04.954Z,96523.16
2023-01-07T01:14:06.879Z,96522.31
2023-01-07T01:15:14.302Z,96522.22
2023-01-07T01:16:20.640Z,96514.50
2023-01-07T01:17:22.804Z,96518.00
2023-01-07T01:18:27.407Z,96518.00
2023-01-07T01:19:29.292Z,96523.19
2023-01-07T01:20:33.785Z,96513.78
2023-01-07T01:21:35.810Z,96518.88
2023-01-07T01:22:40.915Z,96526.59
2023-01-07T01:23:46.241Z,96520.59
2023-01-07T01:24:48.128Z,96523.25
2023-01-07T01:25:52.640Z,96518.09
2023-01-07T01:26:54.542Z,96520.66
2023-01-07T01:27:59.035Z,96519.81
2023-01-07T01:29:03.795Z,96523.25
2023-01-07T01:30:10.155Z,96518.97
2023-01-07T01:31:12.710Z,96519.03
2023-01-07T01:32:17.393Z,96524.19
2023-01-07T01:33:19.335Z,96520.59
2023-01-07T01:34:24.095Z,96520.59
2023-01-07T01:35:26.386Z,96521.50
2023-01-07T01:36:30.871Z,96518.09
2023-01-07T01:37:32.762Z,96522.31
2023-01-07T01:38:37.263Z,96516.28
2023-01-07T01:39:39.147Z,96523.19
2023-01-07T01:40:43.992Z,96520.69
2023-01-07T01:41:46.280Z,96522.53
2023-01-07T01:42:50.775Z,96520.81
2023-01-07T01:43:52.788Z,96519.91
2023-01-07T01:45:01.454Z,96518.19
2023-01-07T01:46:10.532Z,96511.28
2023-01-07T01:47:20.821Z,96516.38
2023-01-07T01:48:23.301Z,96514.72
2023-01-07T01:49:32.403Z,96512.06
2023-01-07T01:50:42.135Z,96512.94
2023-01-07T01:51:48.841Z,96512.84
2023-01-07T01:52:59.905Z,96515.41
2023-01-07T01:54:04.205Z,96508.50
2023-01-07T01:55:11.943Z,96510.09
2023-01-07T01:56:18.870Z,96510.09
2023-01-07T01:57:25.419Z,96510.16
2023-01-07T01:58:34.032Z,96511.03
2023-01-07T01:59:40.633Z,96509.34
2023-01-07T02:00:47.748Z,96509.41
2023-01-07T02:01:50.007Z,96505.09
2023-01-07T02:02:59.648Z,96514.56
2023-01-07T02:04:04.958Z,96512.03
2023-01-07T02:05:10.599Z,96512.88
2023-01-07T02:06:21.529Z,96512.88
2023-01-07T02:07:26.099Z,96511.22
2023-01-07T02:08:28.643Z,96508.63
2023-01-07T02:09:33.471Z,96509.47
2023-01-07T02:10:35.783Z,96509.34
2023-01-07T02:11:45.857Z,96508.63
2023-01-07T02:13:02.077Z,96503.41
2023-01-07T02:14:18.004Z,96502.53
2023-01-07T02:15:30.143Z,96500.81
2023-01-07T02:16:42.150Z,96494.78
2023-01-07T02:18:04.812Z,96505.13
2023-01-07T02:19:38.216Z,96493.88
2023-01-07T02:21:08.950Z,96494.81
2023-01-07T02:22:22.056Z,96493.97
2023-01-07T02:24:08.833Z,96489.75
2023-01-07T02:25:37.379Z,96488.00
2023-01-07T02:27:01.338Z,96487.19
2023-01-07T02:28:26.264Z,96486.34
2023-01-07T02:29:58.278Z,96490.69
2023-01-07T02:31:29.434Z,96485.53
2023-01-07T02:32:48.848Z,96483.84
2023-01-07T02:34:00.869Z,96481.28
2023-01-07T02:35:09.789Z,96483.84
2023-01-07T02:36:40.462Z,96478.69
2023-01-07T02:37:51.778Z,96471.84
2023-01-07T02:39:07.369Z,96480.38
2023-01-07T02:40:16.955Z,96477.00
2023-01-07T02:41:30.129Z,96468.38
2023-01-07T02:42:40.699Z,96466.69
2023-01-07T02:43:50.327Z,96469.22
2023-01-07T02:45:05.085Z,96473.53
2023-01-07T02:46:17.001Z,96465.81
2023-01-07T02:47:31.030Z,96456.34
2023-01-07T02:48:36.703Z,96458.06
2023-01-07T02:49:41.204Z,96456.34
2023-01-07T02:50:43.112Z,96464.91
2023-01-07T02:51:49.039Z,96464.88
2023-01-07T02:52:50.891Z,96454.59
2023-01-07T02:53:55.461Z,96456.31
2023-01-07T02:55:03.033Z,96457.97
2023-01-07T02:56:24.767Z,96456.31
2023-01-07T02:58:07.850Z,96457.16
2023-01-07T02:59:40.525Z,96444.28
2023-01-07T03:01:07.898Z,96452.84
2023-01-07T03:02:42.193Z,96445.19
2023-01-07T03:04:16.633Z,96440.91
2023-01-07T03:05:34.215Z,96440.91
2023-01-07T03:07:07.174Z,96445.22
2023-01-07T03:08:26.202Z,96443.47
2023-01-07T03:09:40.574Z,96441.81
2023-01-07T03:10:48.700Z,96442.59
2023-01-07T03:12:03.384Z,96439.22
2023-01-07T03:13:09.949Z,96434.97
2023-01-07T03:14:20.734Z,96437.53
2023-01-07T03:15:28.841Z,96434.06
2023-01-07T03:16:39.604Z,96437.44
2023-01-07T03:18:56.037Z,96440.03
2023-01-07T03:20:07.192Z,96428.06
2023-01-07T03:21:16.727Z,96428.06
2023-01-07T03:22:21.446Z,96428.06
2023-01-07T03:23:30.178Z,96426.34
2023-01-07T03:24:33.378Z,96422.06
2023-01-07T03:25:41.973Z,96423.75
2023-01-07T03:26:47.602Z,96416.91
2023-01-07T03:27:54.844Z,96417.75
2023-01-07T03:28:59.718Z,96409.19
2023-01-07T03:30:07.718Z,96417.75
2023-01-07T03:31:13.925Z,96411.75
2023-01-07T03:32:20.794Z,96398.03
2023-01-07T03:33:29.151Z,96409.09
2023-01-07T03:34:36.710Z,96405.69
2023-01-07T03:35:45.446Z,96399.75
2023-01-07T03:36:56.297Z,96405.81
2023-01-07T03:38:00.990Z,96401.56
2023-01-07T03:39:08.288Z,96399.75
2023-01-07T03:40:12.813Z,96404.03
2023-01-07T03:41:38.272Z,96397.16
2023-01-07T03:42:42.153Z,96393.59
2023-01-07T03:43:44.949Z,96400.44
2023-01-07T03:44:47.506Z,96397.97
2023-01-07T03:45:55.413Z,96397.16
2023-01-07T03:46:58.550Z,96395.38
2023-01-07T03:48:04.278Z,96397.16
2023-01-07T03:49:06.923Z,96393.75
2023-01-07T03:50:12.899Z,96390.22
2023-01-07T03:51:18.356Z,96387.56
2023-01-07T03:52:23.760Z,96382.50
2023-01-07T03:53:29.037Z,96381.66
2023-01-07T03:54:32.252Z,96381.59
2023-01-07T03:55:37.893Z,96383.34
2023-01-07T03:56:40.584Z,96384.16
2023-01-07T03:57:46.297Z,96378.13
2023-01-07T03:58:49.118Z,96382.28
2023-01-07T03:59:54.485Z,96380.63
2023-01-07T04:00:57.227Z,96380.66
2023-01-07T04:02:03.023Z,96378.06
2023-01-07T04:03:08.587Z,96377.22
2023-01-07T04:04:11.171Z,96369.47
2023-01-07T04:05:16.369Z,96366.81
2023-01-07T04:06:21.807Z,96367.66
2023-01-07T04:07:27.464Z,96362.50
2023-01-07T04:08:29.992Z,96376.25
2023-01-07T04:09:35.418Z,96366.81
2023-01-07T04:10:37.444Z,96371.13
2023-01-07T04:11:42.587Z,96374.56
2023-01-07T04:12:45.028Z,96368.53
2023-01-07T04:13:50.192Z,96372.78
2023-01-07T04:14:53.160Z,96366.72
2023-01-07T04:15:58.035Z,96371.03
2023-01-07T04:17:01.263Z,96361.56
2023-01-07T04:18:06.543Z,96359.88
2023-01-07T04:19:09.574Z,96359.84
2023-01-07T04:20:14.561Z,96366.56
2023-01-07T04:21:17.910Z,96360.63
2023-01-07T04:22:26.093Z,96355.47
2023-01-07T04:23:29.127Z,96361.44
2023-01-07T04:24:34.392Z,96357.16
2023-01-07T04:25:37.045Z,96356.28
2023-01-07T04:26:42.851Z,96352.88
2023-01-07T04:27:45.601Z,96356.41
2023-01-07T04:28:51.190Z,96360.78
2023-01-07T04:29:54.017Z,96361.56
2023-01-07T04:31:02.012Z,96356.41
2023-01-07T04:32:05.161Z,96355.56
2023-01-07T04:33:11.263Z,96358.09
2023-01-07T04:34:14.302Z,96355.56
2023-01-07T04:35:20.180Z,96350.38
2023-01-07T04:36:26.008Z,96352.09
2023-01-07T04:37:30.973Z,96350.38
2023-01-07T04:38:36.381Z,96349.53
2023-01-07T04:39:39.229Z,96352.94
2023-01-07T04:40:44.860Z,96350.38
2023-01-07T04:41:47.675Z,96354.69
2023-01-07T04:42:52.932Z,96349.53
2023-01-07T04:43:55.522Z,96347.81
2023-01-07T04:45:00.499Z,96341.78
2023-01-07T04:46:03.890Z,96353.81
2023-01-07T04:47:09.241Z,96353.06
2023-01-07T04:48:11.803Z,96346.19
2023-01-07T04:49:17.085Z,96349.56
2023-01-07T04:50:19.856Z,96347.03
2023-01-07T04:51:25.375Z,96346.19
2023-01-07T04:52:28.391Z,96347.88
2023-01-07T04:53:36.125Z,96339.16
2023-01-07T04:54:38.832Z,96340.75
2023-01-07T04:55:46.366Z,96342.53
2023-01-07T04:56:49.060Z,96334.78
2023-01-07T04:57:54.918Z,96335.63
2023-01-07T04:58:57.647Z,96330.44
2023-01-07T05:00:03.293Z,96332.13
2023-01-07T05:01:07.557Z,96332.13
2023-01-07T05:02:13.117Z,96334.56
2023-01-07T05:03:15.793Z,96323.34
2023-01-07T05:04:21.785Z,96327.78
2023-01-07T05:05:24.297Z,96323.56
2023-01-07T05:06:29.814Z,96325.31
2023-01-07T05:07:32.471Z,96325.34
2023-01-07T05:08:40.114Z,96323.78
2023-01-07T05:09:42.651Z,96328.13
2023-01-07T05:10:48.041Z,96316.03
2023-01-07T05:11:50.563Z,96317.69
2023-01-07T05:12:55.904Z,96316.03
2023-01-07T05:14:00.986Z,96316.63
2023-01-07T05:15:06.619Z,96313.25
2023-01-07T05:16:09.449Z,96310.56
2023-01-07T05:17:14.642Z,96312.84
2023-01-07T05:18:17.779Z,96308.63
2023-01-07T05:19:22.853Z,96305.22
2023-01-07T05:20:25.265Z,96305.25
2023-01-07T05:21:30.814Z,96301.84
2023-01-07T05:22:34.017Z,96309.56
2023-01-07T05:23:42.065Z,96308.66
2023-01-07T05:24:44.561Z,96310.44
2023-01-07T05:25:49.937Z,96312.94
2023-01-07T05:26:52.915Z,96308.22
2023-01-07T05:27:58.624Z,96304.13
2023-01-07T05:29:01.155Z,96304.25
2023-01-07T05:30:07.333Z,96297.38
2023-01-07T05:31:10.043Z,96300.00
2023-01-07T05:32:15.422Z,96300.81
2023-01-07T05:33:18.021Z,96295.72
2023-01-07T05:34:23.200Z,96300.94
2023-01-07T05:35:25.734Z,96294.97
2023-01-07T05:36:30.971Z,96294.97
2023-01-07T05:37:37.385Z,96290.00
2023-01-07T05:38:42.843Z,96292.69
2023-01-07T05:39:48.464Z,96292.78
2023-01-07T05:40:51.007Z,96292.00
2023-01-07T05:41:56.048Z,96296.09
2023-01-07T05:42:58.772Z,96290.94
2023-01-07T05:44:04.038Z,96288.25
2023-01-07T05:45:08.541Z,96290.00
2023-01-07T05:46:13.541Z,96291.09
2023-01-07T05:47:16.322Z,96281.78
2023-01-07T05:48:21.353Z,96284.41
2023-01-07T05:49:24.036Z,96284.41
2023-01-07T05:50:29.203Z,96282.84
2023-01-07T05:51:31.660Z,96277.69
2023-01-07T05:52:37.262Z,96276.88
2023-01-07T05:53:45.231Z,96274.19
2023-01-07T05:54:50.500Z,96274.09
2023-01-07T05:55:57.547Z,96269.78
2023-01-07T05:57:03.094Z,96272.41
2023-01-07T05:58:07.054Z,96272.41
2023-01-07T05:59:12.319Z,96267.25
2023-01-07T06:00:15.869Z,96270.63
2023-01-07T06:01:21.573Z,96267.03
2023-01-07T06:02:24.369Z,96270.41
2023-01-07T06:03:30.138Z,96268.56
2023-01-07T06:04:34.758Z,96273.56
2023-01-07T06:05:40.216Z,96266.56
2023-01-07T06:06:42.671Z,96270.16
2023-01-07T06:07:48.070Z,96269.38
2023-01-07T06:08:53.257Z,96266.91
2023-01-07T06:09:58.211Z,96266.22
2023-01-07T06:11:03.220Z,96268.94
2023-01-07T06:12:06.079Z,96258.63
2023-01-07T06:13:11.509Z,96265.56
2023-01-07T06:14:14.118Z,96267.16
2023-01-07T06:15:19.425Z,96270.63
2023-01-07T06:16:21.890Z,96267.09
2023-01-07T06:17:27.168Z,96264.50
2023-01-07T06:18:29.934Z,96266.25
2023-01-07T06:19:35.004Z,96259.34
2023-01-07T06:20:37.824Z,96258.41
2023-01-07T06:21:43.150Z,96258.41
2023-01-07T06:22:46.082Z,96266.13
2023-01-07T06:23:51.519Z,96256.41
2023-01-07T06:24:56.763Z,96256.50
2023-01-07T06:26:02.104Z,96261.53
2023-01-07T06:27:04.545Z,96256.47
2023-01-07T06:28:09.711Z,96254.03
2023-01-07T06:29:12.696Z,96263.44
2023-01-07T06:30:18.170Z,96255.91
2023-01-07T06:31:21.040Z,96259.31
2023-01-07T06:32:26.528Z,96256.72
2023-01-07T06:33:29.037Z,96266.25
2023-01-07T06:34:33.983Z,96256.94
2023-01-07T06:35:36.662Z,96251.91
2023-01-07T06:36:41.885Z,96255.25
2023-01-07T06:37:44.499Z,96260.41
2023-01-07T06:38:49.520Z,96252.47
2023-01-07T06:39:52.510Z,96247.78
2023-01-07T06:41:00.556Z,96260.56
2023-01-07T06:42:03.086Z,96250.03
2023-01-07T06:43:08.229Z,96245.69
2023-01-07T06:44:10.891Z,96252.84
2023-01-07T06:45:16.278Z,96256.34
2023-01-07T06:46:19.016Z,96243.47
2023-01-07T06:47:25.456Z,96253.06
2023-01-07T06:48:28.219Z,96257.47
2023-01-07T06:49:33.361Z,96250.75
2023-01-07T06:50:36.194Z,96246.53
2023-01-07T06:51:41.476Z,96242.31
2023-01-07T06:52:44.508Z,96245.03
2023-01-07T06:53:50.106Z,96243.38
2023-01-07T06:54:52.917Z,96252.00
2023-01-07T06:56:01.238Z,96244.31
2023-01-07T06:57:04.350Z,96244.38
2023-01-07T06:58:09.519Z,96240.19
2023-01-07T06:59:12.542Z,96238.47
2023-01-07T07:00:19.261Z,96238.53
2023-01-07T07:01:22.143Z,96235.16
2023-01-07T07:02:30.371Z,96235.16
2023-01-07T07:03:33.101Z,96234.34
2023-01-07T07:04:38.724Z,96235.13
2023-01-07T07:05:45.151Z,96224.84
2023-01-07T07:06:50.621Z,96228.34
2023-01-07T07:07:52.508Z,96236.00
2023-01-07T07:08:58.271Z,96226.41
2023-01-07T07:10:05.188Z,96229.69
2023-01-07T07:11:13.581Z,96230.44
2023-01-07T07:12:17.156Z,96218.09
2023-01-07T07:13:23.161Z,96216.66
2023-01-07T07:14:26.800Z,96221.06
2023-01-07T07:15:32.593Z,96224.63
2023-01-07T07:16:38.908Z,96218.75
2023-01-07T07:17:41.858Z,96217.97
2023-01-07T07:18:47.659Z,96219.47
2023-01-07T07:19:50.836Z,96216.09
2023-01-07T07:20:58.634Z,96215.28
2023-01-07T07:22:03.959Z,96211.63
2023-01-07T07:23:09.373Z,96221.06
2023-01-07T07:24:13.345Z,96214.09
2023-01-07T07:25:19.443Z,96215.91
2023-01-07T07:26:25.200Z,96216.66
2023-01-07T07:27:31.161Z,96217.25
2023-01-07T07:28:33.464Z,96218.97
2023-01-07T07:29:38.428Z,96213.91
2023-01-07T07:30:45.672Z,96210.69
2023-01-07T07:31:53.525Z,96209.97
2023-01-07T07:32:56.535Z,96211.63
2023-01-07T07:34:02.494Z,96206.59
2023-01-07T07:35:05.944Z,96204.00
2023-01-07T07:36:12.343Z,96203.22
2023-01-07T07:37:15.366Z,96209.28
2023-01-07T07:38:21.655Z,96202.34
2023-01-07T07:39:25.292Z,96199.88
2023-01-07T07:40:32.582Z,96197.28
2023-01-07T07:41:38.524Z,96207.50
2023-01-07T07:43:10.245Z,96202.28
2023-01-07T07:44:10.223Z,96194.59
2023-01-07T07:45:16.384Z,96194.53
2023-01-07T07:46:19.405Z,96204.47
2023-01-07T07:47:24.759Z,96200.13
2023-01-07T07:48:30.540Z,96201.66
2023-01-07T07:49:32.732Z,96201.47
2023-01-07T07:50:38.731Z,96201.38
2023-01-07T07:51:41.640Z,96201.25
2023-01-07T07:52:47.621Z,96195.19
2023-01-07T07:53:50.464Z,96196.09
2023-01-07T07:54:55.347Z,96195.13
2023-01-07T07:56:20.863Z,96196.88
2023-01-07T07:57:29.749Z,96188.47
2023-01-07T07:58:32.750Z,96197.19
2023-01-07T07:59:37.589Z,96193.06
2023-01-07T08:00:40.984Z,96192.22
2023-01-07T08:01:46.551Z,96200.00
2023-01-07T08:02:49.421Z,96191.47
2023-01-07T08:03:55.576Z,96191.47
2023-01-07T08:04:58.557Z,96187.25
2023-01-07T08:06:04.199Z,96187.25
2023-01-07T08:07:07.202Z,96195.88
2023-01-07T08:08:13.313Z,96191.59
2023-01-07T08:09:16.184Z,96190.75
2023-01-07T08:10:21.759Z,96186.50
2023-01-07T08:11:27.165Z,96187.38
2023-01-07T08:12:33.264Z,96187.09
2023-01-07T08:13:38.800Z,96189.69
2023-01-07T08:14:44.169Z,96187.91
2023-01-07T08:15:50.555Z,96179.38
2023-01-07T08:16:55.453Z,96180.84
2023-01-07T08:18:00.450Z,96186.09
2023-01-07T08:19:06.069Z,96180.06
2023-01-07T08:20:09.712Z,96184.31
2023-01-07T08:21:14.967Z,96182.63
2023-01-07T08:22:18.074Z,96187.78
2023-01-07T08:23:23.320Z,96186.94
2023-01-07T08:24:26.609Z,96186.09
2023-01-07T08:25:33.539Z,96185.25
2023-01-07T08:26:39.315Z,96180.84
2023-01-07T08:27:44.717Z,96188.59
2023-01-07T08:28:50.063Z,96179.03
2023-01-07T08:29:55.231Z,96175.63
2023-01-07T08:31:00.915Z,96173.97
2023-01-07T08:32:04.057Z,96178.31
2023-01-07T08:33:10.389Z,96179.03
2023-01-07T08:34:13.046Z,96172.81
2023-01-07T08:35:19.416Z,96175.47
2023-01-07T08:36:23.578Z,96177.00
2023-01-07T08:37:28.986Z,96174.50
2023-01-07T08:38:32.818Z,96172.66
2023-01-07T08:39:38.645Z,96168.31
2023-01-07T08:40:41.720Z,96171.72
2023-01-07T08:41:47.336Z,96169.97
2023-01-07T08:42:52.740Z,96165.34
2023-01-07T08:43:58.434Z,96167.47
2023-01-07T08:45:03.294Z,96170.84
2023-01-07T08:46:06.908Z,96168.22
2023-01-07T08:47:12.259Z,96161.91
2023-01-07T08:48:15.117Z,96160.97
2023-01-07T08:49:20.931Z,96155.00
2023-01-07T08:50:23.251Z,96152.31
2023-01-07T08:51:29.679Z,96154.00
2023-01-07T08:52:32.728Z,96151.66
2023-01-07T08:53:38.739Z,96157.59
2023-01-07T08:54:41.166Z,96149.97
2023-01-07T08:55:46.673Z,96160.50
2023-01-07T08:56:49.866Z,96154.53
2023-01-07T08:57:58.974Z,96152.00
2023-01-07T08:59:05.144Z,96155.00
2023-01-07T09:00:09.587Z,96155.78
2023-01-07T09:01:15.849Z,96151.56
2023-01-07T09:02:23.174Z,96151.66
2023-01-07T09:03:28.928Z,96150.81
2023-01-07T09:04:32.407Z,96150.88
2023-01-07T09:05:38.165Z,96155.38
2023-01-07T09:06:44.322Z,96152.78
2023-01-07T09:07:46.687Z,96153.47
2023-01-07T09:08:52.447Z,96144.69
2023-01-07T09:09:55.298Z,96149.38
2023-01-07T09:11:00.914Z,96152.66
2023-01-07T09:12:04.152Z,96148.41
2023-01-07T09:13:12.474Z,96151.78
2023-01-07T09:14:15.313Z,96146.97
2023-01-07T09:15:21.276Z,96153.81
2023-01-07T09:16:27.019Z,96149.66
2023-01-07T09:17:32.318Z,96155.50
2023-01-07T09:18:37.591Z,96156.44
2023-01-07T09:19:40.581Z,96154.66
2023-01-07T09:20:45.872Z,96153.69
2023-01-07T09:21:48.901Z,96150.22
2023-01-07T09:22:54.444Z,96152.00
2023-01-07T09:23:57.757Z,96156.31
2023-01-07T09:25:03.278Z,96161.50
2023-01-07T09:26:09.044Z,96159.75
2023-01-07T09:27:12.082Z,96158.97
2023-01-07T09:28:19.988Z,96154.53
2023-01-07T09:29:22.811Z,96157.28
2023-01-07T09:30:28.438Z,96146.84
2023-01-07T09:31:33.419Z,96147.63
2023-01-07T09:32:36.631Z,96149.97
2023-01-07T09:33:42.064Z,96145.75
2023-01-07T09:34:45.237Z,96144.69
2023-01-07T09:35:50.539Z,96137.72
2023-01-07T09:36:53.051Z,96144.88
2023-01-07T09:37:58.334Z,96152.38
2023-01-07T09:39:01.647Z,96149.13
2023-01-07T09:40:08.097Z,96145.53
2023-01-07T09:41:24.916Z,96146.25
2023-01-07T09:42:38.367Z,96140.13
2023-01-07T09:43:59.431Z,96135.69
2023-01-07T09:45:17.447Z,96141.13
2023-01-07T09:46:22.924Z,96139.13
2023-01-07T09:47:33.873Z,96136.75
2023-01-07T09:48:42.965Z,96145.31
2023-01-07T09:49:48.859Z,96136.63
2023-01-07T09:50:59.496Z,96146.34
2023-01-07T09:52:11.694Z,96141.06
2023-01-07T09:53:18.426Z,96142.09
2023-01-07T09:54:32.547Z,96138.72
2023-01-07T09:55:38.112Z,96145.50
2023-01-07T09:57:04.418Z,96134.91
2023-01-07T09:58:10.385Z,96142.44
2023-01-07T09:59:20.565Z,96139.53
2023-01-07T10:00:27.767Z,96142.56
2023-01-07T10:01:39.733Z,96147.00
2023-01-07T10:02:59.050Z,96142.34
2023-01-07T10:04:22.561Z,96146.47
2023-01-07T10:05:36.659Z,96144.63
2023-01-07T10:06:47.821Z,96139.63
2023-01-07T10:08:31.254Z,96136.88
2023-01-07T10:11:08.920Z,96142.25
2023-01-07T10:12:20.231Z,96137.31
2023-01-07T10:13:45.455Z,96135.69
2023-01-07T10:15:18.967Z,96138.66
2023-01-07T10:16:31.473Z,96130.53
2023-01-07T10:17:50.669Z,96139.25
2023-01-07T10:19:02.092Z,96132.53
2023-01-07T10:20:18.545Z,96132.53
2023-01-07T10:21:26.176Z,96131.25
2023-01-07T10:22:35.572Z,96130.63
2023-01-07T10:23:42.555Z,96125.31
2023-01-07T10:24:51.916Z,96118.00
2023-01-07T10:25:56.834Z,96117.19
2023-01-07T10:27:07.445Z,96118.47
2023-01-07T10:28:21.192Z,96120.03
2023-01-07T10:29:31.240Z,96112.09
2023-01-07T10:30:46.254Z,96113.97
2023-01-07T10:31:50.590Z,96110.91
2023-01-07T10:33:02.184Z,96104.09
2023-01-07T10:34:09.555Z,96100.00
2023-01-07T10:35:21.745Z,96104.91
2023-01-07T10:36:30.166Z,96100.06
2023-01-07T10:37:37.111Z,96105.22
2023-01-07T10:38:45.193Z,96103.22
2023-01-07T10:39:57.979Z,96091.41
2023-01-07T10:41:10.021Z,96095.59
2023-01-07T10:42:23.700Z,96091.28
2023-01-07T10:43:45.959Z,96093.47
2023-01-07T10:45:23.592Z,96089.84
2023-01-07T10:46:47.153Z,96087.09
2023-01-07T10:48:07.804Z,96087.78
2023-01-07T10:49:33.945Z,96082.09
2023-01-07T10:50:55.550Z,96081.25
2023-01-07T10:52:18.369Z,96079.97
2023-01-07T10:53:36.777Z,96078.94
2023-01-07T10:55:17.392Z,96065.31
2023-01-07T10:56:29.349Z,96062.59
2023-01-07T10:57:33.595Z,96061.09
2023-01-07T10:58:43.606Z,96059.56
2023-01-07T10:59:50.522Z,96058.31
2023-01-07T11:00:56.080Z,96051.34
2023-01-07T11:02:02.108Z,96055.59
2023-01-07T11:03:07.782Z,96053.47
2023-01-07T11:04:17.462Z,96059.81
2023-01-07T11:05:21.695Z,96058.09
2023-01-07T11:06:37.703Z,96063.88
2023-01-07T11:07:49.340Z,96060.44
2023-01-07T11:08:51.614Z,96055.41
2023-01-07T11:09:57.978Z,96055.56
2023-01-07T11:11:00.836Z,96057.69
2023-01-07T11:12:20.543Z,96053.28
2023-01-07T11:13:29.990Z,96048.22
2023-01-07T11:14:38.655Z,96043.72
2023-01-07T11:15:49.028Z,96033.47
2023-01-07T11:17:00.617Z,96036.88
2023-01-07T11:18:14.988Z,96035.56
2023-01-07T11:19:17.963Z,96031.84
2023-01-07T11:20:44.306Z,96031.06
2023-01-07T11:21:52.613Z,96030.75
2023-01-07T11:22:55.866Z,96019.47
2023-01-07T11:24:02.326Z,96025.59
2023-01-07T11:25:29.415Z,96015.16
2023-01-07T11:26:35.701Z,96019.31
2023-01-07T11:27:48.636Z,96013.31
2023-01-07T11:28:56.573Z,96010.31
2023-01-07T11:30:05.656Z,96011.28
2023-01-07T11:31:09.227Z,96009.72
2023-01-07T11:32:26.551Z,96012.09
2023-01-07T11:34:02.206Z,95996.59
2023-01-07T11:35:07.868Z,95992.78
2023-01-07T11:36:10.561Z,95998.91
2023-01-07T11:37:39.211Z,95999.56
2023-01-07T11:38:42.766Z,95981.38
2023-01-07T11:40:01.824Z,95987.28
2023-01-07T11:41:09.332Z,95989.50
2023-01-07T11:42:32.887Z,95989.91
2023-01-07T11:43:42.078Z,95991.34
2023-01-07T11:44:45.040Z,95987.38
2023-01-07T11:46:20.128Z,95989.75
2023-01-07T11:47:21.921Z,95986.19
2023-01-07T11:48:35.933Z,95974.22
2023-01-07T11:49:44.805Z,95978.16
2023-01-07T11:51:00.643Z,95987.50
2023-01-07T11:52:03.321Z,95979.91
2023-01-07T11:53:28.045Z,95974.28
2023-01-07T11:54:36.007Z,95962.13
2023-01-07T11:55:40.334Z,95961.91
2023-01-07T11:56:46.254Z,95954.19
2023-01-07T11:58:03.486Z,95968.06
2023-01-07T11:59:33.041Z,95956.59
2023-01-07T12:00:39.151Z,95957.94
2023-01-07T12:01:44.123Z,95966.28
2023-01-07T12:03:05.727Z,95959.16
2023-01-07T12:04:25.072Z,95951.44
2023-01-07T12:05:28.931Z,95943.09
2023-01-07T12:06:38.571Z,95945.31
2023-01-07T12:07:49.888Z,95947.00
2023-01-07T12:08:59.179Z,95947.03
2023-01-07T12:10:04.602Z,95949.69
2023-01-07T12:11:10.804Z,95950.94
2023-01-07T12:12:35.199Z,95939.72
2023-01-07T12:13:42.225Z,95942.88
2023-01-07T12:14:51.319Z,95940.69
2023-01-07T12:15:58.035Z,95941.31
2023-01-07T12:17:15.772Z,95943.22
2023-01-07T12:18:53.986Z,95938.25
2023-01-07T12:20:31.264Z,95934.34
2023-01-07T12:21:38.135Z,95927.31
2023-01-07T12:22:50.456Z,95925.72
2023-01-07T12:24:22.431Z,95923.50
2023-01-07T12:25:45.384Z,95908.38
2023-01-07T12:27:22.518Z,95913.66
2023-01-07T12:28:44.810Z,95893.53
2023-01-07T12:30:00.896Z,95904.66
2023-01-07T12:31:22.093Z,95901.50
2023-01-07T12:32:36.168Z,95910.16
2023-01-07T12:34:03.965Z,95912.84
2023-01-07T12:35:18.491Z,95901.13
2023-01-07T12:36:27.314Z,95907.59
2023-01-07T12:37:37.343Z,95893.94
2023-01-07T12:38:48.933Z,95884.00
2023-01-07T12:39:56.888Z,95879.22
2023-01-07T12:41:05.781Z,95894.56
2023-01-07T12:42:15.282Z,95894.72
2023-01-07T12:43:23.650Z,95888.03
2023-01-07T12:44:28.491Z,95890.91
2023-01-07T12:45:36.912Z,95890.53
2023-01-07T12:46:45.804Z,95890.63
2023-01-07T12:47:51.651Z,95875.09
2023-01-07T12:49:05.787Z,95883.19
2023-01-07T12:50:21.478Z,95884.69
2023-01-07T12:51:55.651Z,95876.63
2023-01-07T12:53:07.005Z,95873.38
2023-01-07T12:54:15.997Z,95887.47
2023-01-07T12:55:24.422Z,95875.66
2023-01-07T12:56:33.093Z,95875.34
2023-01-07T12:57:40.672Z,95883.25
2023-01-07T12:58:47.342Z,95873.50
2023-01-07T12:59:56.631Z,95868.31
2023-01-07T13:01:09.019Z,95867.53
2023-01-07T13:02:19.881Z,95869.97
2023-01-07T13:03:47.713Z,95855.81
2023-01-07T13:05:00.723Z,95842.22
2023-01-07T13:06:13.866Z,95852.47
2023-01-07T13:07:26.232Z,95855.06
2023-01-07T13:08:41.602Z,95859.44
2023-01-07T13:23:03.184Z,95830.41
2023-01-07T13:24:54.824Z,95833.88
2023-01-07T13:26:11.109Z,95828.25
2023-01-07T13:27:26.908Z,95828.28
2023-01-07T13:29:05.275Z,95815.97
2023-01-07T13:30:24.895Z,95813.81
2023-01-07T13:31:43.972Z,95816.63
2023-01-07T13:33:04.073Z,95808.13
2023-01-07T13:34:24.754Z,95794.00
2023-01-07T13:37:47.871Z,95808.69
2023-01-07T13:39:02.939Z,95823.38